Search METAR Data

METAR Data for ENRS:

ENRS 220450Z AUTO 08012KT 9999 NCD 08/04 Q1021